Time;durP1;ratioP1;P1;durP2;ratioP2;P2;SDS_P1;SDS_P2;PMS_P1;PMS_P2;Temp;Humidity;BMP_temperature;BMP_pressure;BME280_temperature;BME280_humidity;BME280_pressure;Samples;Min_cycle;Max_cycle;Signal;HPM_P1;HPM_P2
2023/04/10 00:00:57;;;;;;;59.17;39.90;;;6.40;99.90;;;5.74;75.98;101843.56;5093325;28;20184;-76
2023/04/10 00:03:30;;;;;;;55.73;38.40;;;6.40;99.90;;;5.67;76.26;101852.91;5093300;28;20216;-76
2023/04/10 00:06:02;;;;;;;61.23;40.17;;;6.30;99.90;;;5.56;75.91;101845.63;5093203;28;20200;-76
2023/04/10 00:08:34;;;;;;;56.07;39.10;;;6.20;99.90;;;5.46;76.55;101843.69;5093246;28;20196;-76
2023/04/10 00:11:06;;;;;;;57.07;37.43;;;6.10;99.90;;;5.35;76.93;101846.19;5093184;28;20213;-76
2023/04/10 00:13:39;;;;;;;55.40;38.20;;;6.00;99.90;;;5.36;75.98;101847.88;5093434;28;20196;-76
2023/04/10 00:16:12;;;;;;;54.67;38.00;;;6.00;99.90;;;5.29;77.00;101843.94;5094022;28;20193;-76
2023/04/10 00:18:44;;;;;;;52.27;37.50;;;5.90;99.90;;;5.37;76.65;101847.81;5093136;28;20288;-76
2023/04/10 00:21:16;;;;;;;52.03;36.17;;;6.00;99.90;;;5.29;75.79;101846.59;5093151;28;20258;-76
2023/04/10 00:23:48;;;;;;;55.93;38.20;;;6.00;99.90;;;5.17;76.86;101848.25;5093091;28;20291;-76
2023/04/10 00:26:22;;;;;;;58.33;37.47;;;5.80;99.90;;;5.27;75.90;101844.03;5092703;28;20646;-76
2023/04/10 00:28:55;;;;;;;59.57;39.37;;;5.90;99.90;;;5.26;76.78;101842.34;5093009;28;20192;-76
2023/04/10 00:31:27;;;;;;;51.10;36.77;;;5.90;99.90;;;5.08;76.16;101846.16;5094121;28;20578;-76
2023/04/10 00:33:59;;;;;;;54.57;37.30;;;5.70;99.90;;;5.05;76.40;101833.94;5096632;28;20197;-76
2023/04/10 00:36:31;;;;;;;50.27;35.43;;;5.60;99.90;;;5.04;76.54;101840.19;5096484;28;20235;-76
2023/04/10 00:39:03;;;;;;;56.50;37.93;;;5.60;99.90;;;5.00;76.39;101829.91;5096154;28;20688;-76
2023/04/10 00:41:35;;;;;;;55.80;37.27;;;5.60;99.90;;;4.89;76.92;101822.63;5096452;28;20195;-76
2023/04/10 00:44:08;;;;;;;50.93;35.87;;;5.50;99.90;;;4.77;76.87;101819.88;5096458;28;20189;-76
2023/04/10 00:46:42;;;;;;;49.43;36.23;;;5.40;99.90;;;4.71;77.88;101818.47;5095991;28;20713;-76
2023/04/10 00:49:17;;;;;;;56.53;36.90;;;5.40;99.90;;;4.68;77.63;101812.50;5096018;28;20548;-76
2023/04/10 00:51:51;;;;;;;48.67;35.70;;;5.40;99.90;;;4.67;77.47;101800.19;5095882;28;20695;-76
2023/04/10 00:54:23;;;;;;;54.83;35.97;;;5.30;99.90;;;4.70;78.07;101806.13;5096175;28;20192;-76
2023/04/10 00:56:56;;;;;;;51.23;36.80;;;5.30;99.90;;;4.72;77.97;101803.41;5096063;28;20233;-76
2023/04/10 00:59:30;;;;;;;54.20;35.40;;;5.40;99.90;;;4.73;78.22;101794.47;5095673;28;20270;-76
2023/04/10 01:02:02;;;;;;;48.23;33.90;;;5.40;99.90;;;4.81;77.78;101797.50;5096036;28;20187;-76
2023/04/10 01:04:35;;;;;;;51.90;36.70;;;5.40;99.90;;;4.87;76.43;101799.75;5095738;28;20699;-76
2023/04/10 01:07:17;;;;;;;53.13;36.23;;;5.60;99.90;;;4.71;77.30;101801.69;5095895;28;20220;-76
2023/04/10 01:09:59;;;;;;;52.97;35.57;;;5.30;99.90;;;4.59;77.05;101804.16;5095939;28;20196;-76
2023/04/10 01:12:51;;;;;;;52.57;35.63;;;5.30;99.90;;;4.62;77.28;101807.59;5095491;28;20673;-76
2023/04/10 01:15:30;;;;;;;58.83;37.47;;;5.30;99.90;;;4.53;77.42;101809.84;5095817;28;20197;-76
2023/04/10 01:18:14;;;;;;;60.23;37.97;;;5.20;99.90;;;4.44;77.84;101804.28;5095691;28;20226;-76
2023/04/10 01:20:47;;;;;;;59.53;38.67;;;5.10;99.90;;;4.50;78.01;101810.06;5095726;28;20208;-76
2023/04/10 01:24:07;;;;;;;55.20;37.50;;;5.20;99.90;;;4.51;77.52;101821.50;5095669;28;20242;-76
2023/04/10 01:27:01;;;;;;;53.03;37.03;;;5.20;99.90;;;4.53;76.76;101828.41;5095572;28;20315;-76
2023/04/10 01:29:38;;;;;;;59.17;37.10;;;5.20;99.90;;;4.45;77.33;101822.72;5095523;28;20196;-76
2023/04/10 01:32:17;;;;;;;55.33;38.27;;;5.10;99.90;;;4.48;77.53;101822.56;5095396;28;20213;-76
2023/04/10 01:34:54;;;;;;;56.67;38.67;;;5.20;99.90;;;4.39;77.84;101820.47;5095114;28;20543;-74
2023/04/10 01:37:30;;;;;;;52.60;35.67;;;5.00;99.90;;;4.37;77.75;101825.03;5095027;28;20225;-75
2023/04/10 01:40:08;;;;;;;56.47;36.83;;;5.00;99.90;;;4.35;77.55;101821.59;5095309;28;20189;-75
2023/04/10 01:42:48;;;;;;;52.23;35.47;;;5.00;99.90;;;4.35;76.40;101818.94;5094922;28;20193;-75
2023/04/10 01:45:27;;;;;;;52.83;35.53;;;5.00;99.90;;;4.35;77.01;101826.06;5094870;28;20284;-75
2023/04/10 01:47:59;;;;;;;52.47;34.60;;;5.00;99.90;;;4.28;77.30;101828.22;5094755;28;20231;-76
2023/04/10 01:50:33;;;;;;;54.13;35.53;;;5.00;99.90;;;4.22;76.60;101825.94;5095127;28;20189;-76
2023/04/10 01:53:09;;;;;;;51.30;35.37;;;5.00;99.90;;;4.03;77.64;101826.22;5094942;28;20209;-75
2023/04/10 01:55:41;;;;;;;49.90;34.53;;;4.70;99.90;;;3.93;78.06;101821.56;5094694;28;20652;-75
2023/04/10 01:58:13;;;;;;;51.07;34.77;;;4.60;99.90;;;3.84;78.16;101814.13;5094536;28;20233;-76
2023/04/10 02:00:47;;;;;;;53.10;34.70;;;4.50;99.90;;;3.81;78.30;101811.69;5094767;28;20189;-75
2023/04/10 02:03:18;;;;;;;50.97;34.27;;;4.50;99.90;;;3.80;78.18;101807.34;5094729;28;20185;-75
2023/04/10 02:06:03;;;;;;;48.40;33.90;;;4.50;99.90;;;3.82;77.66;101797.50;5094707;28;20219;-75
2023/04/10 02:08:43;;;;;;;51.70;34.83;;;4.50;99.90;;;3.74;78.42;101797.09;5094573;28;20196;-75
2023/04/10 02:11:23;;;;;;;54.13;35.70;;;4.40;99.90;;;3.73;78.89;101800.69;5094184;28;20200;-75
2023/04/10 02:13:57;;;;;;;50.63;35.07;;;4.40;99.90;;;3.72;78.27;101793.69;5094515;28;20193;-75
2023/04/10 02:16:32;;;;;;;48.70;33.63;;;4.40;99.90;;;3.73;78.58;101795.41;5094057;28;20756;-75
2023/04/10 02:19:06;;;;;;;49.33;35.37;;;4.40;99.90;;;3.77;77.69;101794.25;5094467;28;20242;-75
2023/04/10 02:21:40;;;;;;;52.27;35.27;;;4.50;99.90;;;3.84;76.52;101795.59;5094403;28;20185;-75
2023/04/10 02:24:12;;;;;;;50.70;34.40;;;4.60;99.90;;;3.91;77.13;101792.50;5094378;28;20275;-75
2023/04/10 02:26:52;;;;;;;51.70;35.27;;;4.60;99.90;;;3.77;78.19;101791.59;5094160;28;20225;-74
2023/04/10 02:29:24;;;;;;;55.53;36.07;;;4.50;99.90;;;3.74;76.82;101791.78;5094227;28;20200;-75
2023/04/10 02:31:57;;;;;;;51.50;35.33;;;4.40;99.90;;;3.70;77.50;101785.81;5094100;28;20205;-75
2023/04/10 02:34:29;;;;;;;53.33;35.30;;;4.40;99.90;;;3.60;77.62;101783.84;5094112;28;20193;-75
2023/04/10 02:37:01;;;;;;;52.00;34.73;;;4.30;99.90;;;3.52;78.37;101782.50;5094014;28;20283;-75
2023/04/10 02:39:33;;;;;;;49.93;34.23;;;4.20;99.90;;;3.44;78.52;101774.13;5094051;28;20189;-75
2023/04/10 02:42:05;;;;;;;50.37;35.47;;;4.20;99.90;;;3.38;78.35;101779.78;5093705;28;20557;-75
2023/04/10 02:44:38;;;;;;;52.03;34.97;;;4.10;99.90;;;3.34;78.33;101777.41;5093992;28;20189;-75
2023/04/10 02:47:11;;;;;;;63.13;36.70;;;4.00;99.90;;;3.27;78.99;101766.31;5093580;28;20256;-75
2023/04/10 02:49:43;;;;;;;51.30;34.13;;;4.00;99.90;;;3.37;79.19;101762.19;5093888;28;20283;-75
2023/04/10 02:52:15;;;;;;;54.17;34.97;;;4.00;99.90;;;3.34;78.31;101759.72;5093774;28;20262;-75
2023/04/10 02:54:47;;;;;;;54.70;35.83;;;4.10;99.90;;;3.31;78.11;101767.84;5093188;28;20199;-75
2023/04/10 02:57:20;;;;;;;57.40;36.03;;;4.00;99.90;;;3.34;77.91;101775.63;5093711;28;20235;-75
2023/04/10 02:59:54;;;;;;;52.70;35.23;;;4.10;99.90;;;3.33;78.43;101770.41;5093321;28;20681;-75
2023/04/10 03:02:27;;;;;;;55.10;35.33;;;4.00;99.90;;;3.26;78.91;101767.25;5093725;28;20188;-75
2023/04/10 03:05:00;;;;;;;49.43;33.37;;;4.00;99.90;;;3.18;78.43;101758.94;5093684;28;20204;-75
2023/04/10 03:07:32;;;;;;;50.10;34.17;;;3.90;99.90;;;3.23;79.49;101764.78;5093549;28;20224;-75
2023/04/10 03:10:04;;;;;;;51.07;33.07;;;3.90;99.90;;;3.18;78.36;101751.00;5093316;28;20586;-75
2023/04/10 03:12:36;;;;;;;48.23;32.97;;;3.90;99.90;;;3.22;78.63;101752.50;5093768;28;20208;-75
2023/04/10 03:15:10;;;;;;;48.37;33.80;;;3.90;99.90;;;3.18;78.57;101750.13;5093616;28;20189;-75
2023/04/10 03:17:44;;;;;;;49.70;33.20;;;3.90;99.90;;;3.16;78.54;101754.63;5093471;28;20224;-75
2023/04/10 03:20:17;;;;;;;49.90;32.67;;;3.90;99.90;;;3.11;78.66;101749.63;5093525;28;20193;-75
2023/04/10 03:22:49;;;;;;;53.53;34.43;;;3.90;99.90;;;3.05;79.03;101750.81;5093495;28;20200;-75
2023/04/10 03:25:21;;;;;;;53.97;34.10;;;3.80;99.90;;;3.12;78.25;101746.03;5093482;28;20189;-75
2023/04/10 03:27:53;;;;;;;52.00;33.17;;;3.90;99.90;;;3.14;78.85;101749.44;5093358;28;20221;-75
2023/04/10 03:30:24;;;;;;;45.90;31.97;;;3.90;99.90;;;3.13;79.21;101749.53;5093442;28;20192;-75
2023/04/10 03:32:57;;;;;;;48.40;33.07;;;3.80;99.90;;;3.15;78.83;101739.72;5093298;28;20225;-75
2023/04/10 03:35:29;;;;;;;49.13;31.77;;;3.90;99.90;;;3.15;78.86;101732.63;5093099;28;20641;-75
2023/04/10 03:38:01;;;;;;;49.33;33.27;;;3.90;99.90;;;3.15;79.00;101729.97;5093280;28;20228;-75
2023/04/10 03:40:33;;;;;;;46.27;31.20;;;3.90;99.90;;;3.17;78.82;101727.25;5093359;28;20208;-75
2023/04/10 03:43:06;;;;;;;45.90;31.67;;;3.90;99.90;;;3.07;77.97;101732.22;5093328;28;20189;-75
2023/04/10 03:45:38;;;;;;;48.60;31.77;;;3.80;99.90;;;2.99;79.22;101729.16;5093250;28;20189;-75
2023/04/10 03:48:11;;;;;;;45.83;31.93;;;3.70;99.90;;;2.85;79.04;101729.94;5093156;28;20228;-75
2023/04/10 03:50:43;;;;;;;46.17;32.07;;;3.60;99.90;;;2.82;79.15;101731.91;5092904;28;20597;-75
2023/04/10 03:53:15;;;;;;;48.63;31.27;;;3.50;99.90;;;2.87;79.26;101732.50;5093127;28;20219;-75
2023/04/10 03:55:47;;;;;;;43.07;29.67;;;3.60;99.90;;;2.83;79.79;101723.03;5093155;28;20193;-75
2023/04/10 03:58:19;;;;;;;46.73;31.27;;;3.50;99.90;;;2.76;79.55;101726.97;5092812;28;20233;-75
2023/04/10 04:00:51;;;;;;;45.10;29.57;;;3.50;99.90;;;2.71;79.70;101734.28;5093158;28;20189;-75
2023/04/10 04:03:24;;;;;;;46.50;31.20;;;3.40;99.90;;;2.68;79.93;101729.19;5093143;28;20193;-75
2023/04/10 04:05:56;;;;;;;44.63;29.33;;;3.40;99.90;;;2.63;78.80;101726.81;5095511;28;20275;-75
2023/04/10 04:08:28;;;;;;;45.40;29.97;;;3.40;99.90;;;2.54;79.63;101733.44;5096923;28;20197;-75
2023/04/10 04:11:00;;;;;;;43.53;29.33;;;3.30;99.90;;;2.50;79.42;101725.78;5096922;28;20192;-75
2023/04/10 04:13:32;;;;;;;43.37;30.60;;;3.20;99.90;;;2.48;79.84;101725.00;5096798;28;20348;-75
2023/04/10 04:16:04;;;;;;;46.90;30.87;;;3.20;99.90;;;2.47;79.48;101737.38;5096715;28;20200;-75
2023/04/10 04:18:37;;;;;;;42.60;29.17;;;3.20;99.90;;;2.50;79.30;101734.56;5096726;28;20193;-75
2023/04/10 04:21:10;;;;;;;42.27;29.23;;;3.30;99.90;;;2.46;79.90;101730.41;5096401;28;20193;-75
2023/04/10 04:23:41;;;;;;;42.67;28.57;;;3.20;99.90;;;2.42;78.91;101734.13;5096677;28;20306;-75
2023/04/10 04:26:13;;;;;;;41.73;27.50;;;3.20;99.90;;;2.40;79.92;101725.44;5096494;28;20193;-75
2023/04/10 04:28:46;;;;;;;43.00;30.20;;;3.20;99.90;;;2.39;79.68;101729.03;5096553;28;20199;-75
2023/04/10 04:31:17;;;;;;;42.23;29.17;;;3.10;99.90;;;2.37;80.08;101728.25;5096157;28;20562;-75
2023/04/10 04:33:51;;;;;;;41.50;29.13;;;3.10;99.90;;;2.34;80.10;101731.06;5096389;28;20212;-75
2023/04/10 04:36:23;;;;;;;41.60;28.03;;;3.10;99.90;;;2.39;80.26;101731.66;5096355;28;20232;-74
2023/04/10 04:38:55;;;;;;;39.17;27.50;;;3.10;99.90;;;2.37;80.59;101732.66;5096331;28;20200;-75
2023/04/10 04:41:29;;;;;;;38.70;27.27;;;3.10;99.90;;;2.47;81.45;101725.94;5095980;28;20181;-75
2023/04/10 04:44:01;;;;;;;40.83;27.70;;;3.20;99.90;;;2.42;81.21;101725.34;5096268;28;20280;-74
2023/04/10 04:46:33;;;;;;;41.90;28.47;;;3.20;99.90;;;2.40;80.97;101730.72;5096149;28;20592;-74
2023/04/10 04:49:06;;;;;;;40.83;27.83;;;3.20;99.90;;;2.43;81.48;101730.53;5096160;28;20192;-74
2023/04/10 04:51:38;;;;;;;38.90;26.63;;;3.20;99.90;;;2.46;81.85;101729.53;5096110;28;20190;-75
2023/04/10 04:54:10;;;;;;;38.17;26.13;;;3.30;99.90;;;2.46;80.84;101729.53;5095981;28;20213;-75
2023/04/10 04:56:42;;;;;;;37.83;25.30;;;3.30;99.90;;;2.48;80.44;101730.28;5095600;28;20701;-75
2023/04/10 04:59:14;;;;;;;40.77;26.13;;;3.30;99.90;;;2.46;80.64;101733.03;5095625;28;20232;-74
2023/04/10 05:01:46;;;;;;;39.93;26.53;;;3.20;99.90;;;2.46;80.94;101733.03;5095925;28;20207;-75
2023/04/10 05:04:20;;;;;;;38.27;27.40;;;3.30;99.90;;;2.48;81.99;101728.50;5095563;28;20633;-75
2023/04/10 05:06:52;;;;;;;39.80;25.90;;;3.30;99.90;;;2.47;81.00;101731.22;5095785;28;20242;-74
2023/04/10 05:09:24;;;;;;;42.20;28.07;;;3.30;99.90;;;2.47;81.46;101726.78;5095819;28;20562;-74
2023/04/10 05:11:55;;;;;;;41.20;27.80;;;3.30;99.90;;;2.51;81.73;101727.47;5095465;28;20658;-74
2023/04/10 05:14:27;;;;;;;39.93;25.80;;;3.30;99.90;;;2.60;81.83;101731.41;5096165;28;20209;-74
2023/04/10 05:16:59;;;;;;;35.57;24.43;;;3.40;99.90;;;2.66;81.42;101731.06;5094924;28;20229;-74
2023/04/10 05:19:35;;;;;;;39.93;27.20;;;3.50;99.90;;;2.69;81.75;101730.91;5095236;28;20621;-74
2023/04/10 05:22:07;;;;;;;37.07;26.13;;;3.50;99.90;;;2.69;81.69;101733.53;5095252;28;20634;-74
2023/04/10 05:24:39;;;;;;;37.40;25.80;;;3.50;99.90;;;2.74;82.24;101729.69;5095512;28;20189;-74
2023/04/10 05:27:11;;;;;;;41.47;25.50;;;3.60;99.90;;;2.81;82.04;101735.50;5095407;28;20243;-74
2023/04/10 05:29:43;;;;;;;39.03;25.10;;;3.60;99.90;;;2.87;82.01;101740.44;5095458;28;20195;-74
2023/04/10 05:32:15;;;;;;;39.10;26.60;;;3.70;99.90;;;2.92;82.71;101738.38;5095456;28;20271;-74
2023/04/10 05:34:48;;;;;;;37.53;26.10;;;3.80;99.90;;;2.99;82.85;101734.44;5095345;28;20245;-74
2023/04/10 05:37:20;;;;;;;39.50;27.33;;;3.80;99.90;;;3.06;83.04;101730.50;5095338;28;20228;-74
2023/04/10 05:39:52;;;;;;;40.13;27.67;;;3.90;99.90;;;3.13;83.04;101723.94;5095355;28;20193;-74
2023/04/10 05:42:23;;;;;;;37.77;25.57;;;4.00;99.90;;;3.21;82.62;101721.69;5095005;28;20671;-74
2023/04/10 05:44:56;;;;;;;39.50;26.80;;;4.10;99.90;;;3.28;82.96;101727.47;5095291;28;20193;-74
2023/04/10 05:47:28;;;;;;;40.80;26.33;;;4.20;99.90;;;3.33;82.45;101731.56;5095112;28;20243;-74
2023/04/10 05:50:02;;;;;;;35.57;26.50;;;4.20;99.90;;;3.39;82.54;101736.47;5095127;28;20224;-74
2023/04/10 05:52:34;;;;;;;37.57;26.60;;;4.30;99.90;;;3.44;82.97;101731.78;5094789;28;20634;-74
2023/04/10 05:55:07;;;;;;;38.27;26.47;;;4.30;99.90;;;3.50;83.76;101736.69;5094734;28;20696;-74
2023/04/10 05:57:41;;;;;;;37.73;25.90;;;4.40;99.90;;;3.55;83.42;101739.09;5094813;28;20225;-74
2023/04/10 06:00:16;;;;;;;33.93;25.33;;;4.40;99.90;;;3.63;83.95;101741.28;5094980;28;20242;-74
2023/04/10 06:02:48;;;;;;;38.80;25.73;;;4.50;99.90;;;3.71;84.23;101746.97;5094938;28;20199;-74
2023/04/10 06:05:22;;;;;;;38.67;25.83;;;4.60;99.90;;;3.77;84.41;101741.28;5094764;28;20268;-74
2023/04/10 06:07:53;;;;;;;37.57;26.67;;;4.70;99.90;;;3.83;84.65;101733.00;5094743;28;20224;-74
2023/04/10 06:10:31;;;;;;;34.93;25.37;;;4.80;99.90;;;3.92;84.72;101743.00;5094717;28;20199;-74
2023/04/10 06:13:03;;;;;;;38.33;26.10;;;4.80;99.90;;;3.97;84.78;101738.31;5094676;28;20200;-74
2023/04/10 06:15:35;;;;;;;38.47;27.53;;;4.90;99.90;;;4.02;84.76;101733.56;5094573;28;20232;-74
2023/04/10 06:18:06;;;;;;;39.27;26.43;;;4.90;99.90;;;4.08;85.10;101738.47;5094573;28;20224;-74
2023/04/10 06:20:40;;;;;;;34.90;26.23;;;5.00;99.90;;;4.15;85.02;101733.66;5094284;28;20625;-74
2023/04/10 06:23:12;;;;;;;38.43;26.63;;;5.00;99.90;;;4.21;85.37;101725.34;5094221;28;20646;-74
2023/04/10 06:25:45;;;;;;;41.67;26.43;;;5.10;99.90;;;4.30;85.48;101722.94;5094478;28;20189;-74
2023/04/10 06:28:16;;;;;;;37.33;26.17;;;5.20;99.90;;;4.36;84.95;101725.22;5093304;28;20224;-74
2023/04/10 06:30:48;;;;;;;35.77;25.27;;;5.30;99.90;;;4.39;85.11;101719.72;5094313;28;20192;-74
2023/04/10 06:33:21;;;;;;;34.63;25.77;;;5.30;99.90;;;4.45;85.46;101710.53;5094311;28;20189;-74
2023/04/10 06:35:58;;;;;;;34.20;24.73;;;5.40;99.90;;;4.53;85.53;101708.22;5094012;28;20243;-74
2023/04/10 06:38:32;;;;;;;42.63;26.63;;;5.40;99.90;;;4.59;85.87;101708.69;5093924;28;20634;-74
2023/04/10 06:41:04;;;;;;;35.27;25.53;;;5.50;99.90;;;4.69;85.26;101708.97;5093825;28;20188;-74
2023/04/10 06:43:39;;;;;;;35.23;25.60;;;5.60;99.90;;;4.77;85.45;101701.34;5094572;28;20197;-74
2023/04/10 06:46:11;;;;;;;34.40;24.83;;;5.70;99.90;;;4.84;85.58;101699.13;5093812;28;20629;-74
2023/04/10 06:48:43;;;;;;;37.93;27.13;;;5.80;99.90;;;4.95;85.51;101696.63;5094132;28;20189;-74
2023/04/10 06:51:17;;;;;;;36.07;25.70;;;5.90;99.90;;;5.05;86.22;101695.06;5094009;28;20189;-74
2023/04/10 06:53:48;;;;;;;36.17;24.43;;;6.00;99.90;;;5.12;85.63;101696.38;5093975;28;20193;-74
2023/04/10 06:56:20;;;;;;;34.37;24.60;;;6.10;99.90;;;5.21;85.61;101701.06;5093615;28;20706;-74
2023/04/10 06:58:52;;;;;;;32.20;23.33;;;6.20;99.90;;;5.30;84.78;101697.81;5093651;28;20220;-74
2023/04/10 07:01:25;;;;;;;32.37;23.83;;;6.20;99.90;;;5.37;84.33;101701.75;5093652;28;20641;-74
2023/04/10 07:04:03;;;;;;;34.37;25.37;;;6.30;99.90;;;5.42;84.90;101696.09;5093884;28;20212;-74
2023/04/10 07:06:36;;;;;;;36.97;26.50;;;6.40;99.90;;;5.47;84.94;101697.53;5093810;28;20228;-74
2023/04/10 07:09:08;;;;;;;31.37;23.67;;;6.40;99.90;;;5.59;84.89;101690.50;5093793;28;20193;-74
2023/04/10 07:11:40;;;;;;;31.20;23.40;;;6.50;99.90;;;5.65;84.17;101695.38;5093811;28;20189;-74
2023/04/10 07:14:12;;;;;;;32.57;24.10;;;6.60;99.90;;;5.77;83.78;101689.25;5093677;28;20232;-74
2023/04/10 07:16:44;;;;;;;33.70;26.03;;;6.70;99.90;;;5.87;83.47;101682.34;5093686;28;20274;-74
2023/04/10 07:19:22;;;;;;;31.03;23.37;;;6.80;99.90;;;5.95;83.06;101680.03;5093696;28;20185;-76
2023/04/10 07:21:55;;;;;;;28.87;22.97;;;6.90;99.90;;;6.01;83.18;101682.25;5093433;28;20534;-74
2023/04/10 07:24:27;;;;;;;29.50;22.43;;;7.00;99.90;;;6.11;82.90;101671.81;5093638;28;20189;-74
2023/04/10 07:27:00;;;;;;;27.53;21.43;;;7.00;99.90;;;6.19;82.41;101680.09;5093648;28;20232;-74
2023/04/10 07:29:32;;;;;;;29.50;22.03;;;7.10;99.90;;;6.30;81.89;101666.84;5093615;28;20192;-75
2023/04/10 07:32:04;;;;;;;26.13;21.30;;;7.20;99.90;;;6.40;81.91;101667.06;5093614;28;20189;-75
2023/04/10 07:34:36;;;;;;;27.80;20.40;;;7.30;99.90;;;6.47;80.81;101660.34;5093527;28;20568;-75
2023/04/10 07:37:10;;;;;;;26.60;21.13;;;7.40;99.90;;;6.52;81.03;101661.69;5093131;28;20232;-74
2023/04/10 07:39:41;;;;;;;26.00;20.37;;;7.50;99.90;;;6.60;80.76;101664.66;5093698;28;20650;-75
2023/04/10 07:42:14;;;;;;;25.63;21.77;;;7.60;99.90;;;6.74;80.55;101655.66;5097995;28;20246;-75
2023/04/10 07:44:46;;;;;;;24.43;18.80;;;7.60;99.90;;;6.90;79.91;101661.53;5097626;28;20189;-75
2023/04/10 07:47:18;;;;;;;25.97;20.37;;;7.80;99.90;;;7.05;79.60;101654.22;5097474;28;20220;-74
2023/04/10 07:49:50;;;;;;;29.53;21.07;;;8.00;99.90;;;7.17;79.09;101649.75;5097398;28;20612;-75
2023/04/10 07:52:23;;;;;;;25.77;19.87;;;8.00;99.90;;;7.28;79.16;101655.13;5097186;28;20629;-75
2023/04/10 07:54:55;;;;;;;25.90;20.53;;;8.20;99.90;;;7.43;79.25;101652.13;5097372;28;20235;-75
2023/04/10 07:57:27;;;;;;;27.03;20.27;;;8.30;99.90;;;7.55;77.34;101647.69;5097252;28;20232;-76
2023/04/10 08:00:00;;;;;;;23.43;19.40;;;8.40;99.90;;;7.68;77.66;101647.56;5096932;28;20224;-76
2023/04/10 08:02:31;;;;;;;24.83;19.43;;;8.60;99.90;;;7.79;78.00;101650.25;5097287;28;20189;-76
2023/04/10 08:05:03;;;;;;;25.67;19.70;;;8.70;99.90;;;8.00;76.22;101648.56;5097204;28;20189;-75
2023/04/10 08:07:37;;;;;;;27.60;21.07;;;8.90;99.90;;;8.06;76.29;101653.41;5096791;28;20231;-75
2023/04/10 08:10:08;;;;;;;24.10;19.47;;;8.90;99.90;;;8.11;76.89;101643.22;5097187;28;20201;-75
2023/04/10 08:12:40;;;;;;;23.23;19.07;;;9.00;99.90;;;8.22;76.66;101643.19;5097069;28;20189;-75
2023/04/10 08:15:13;;;;;;;23.93;20.57;;;9.10;99.90;;;8.33;76.56;101640.53;5096900;28;20212;-75
2023/04/10 08:17:45;;;;;;;23.50;18.83;;;9.20;99.90;;;8.54;75.57;101643.28;5096862;28;20240;-75
2023/04/10 08:20:19;;;;;;;21.63;18.30;;;9.30;99.90;;;8.60;75.77;101627.63;5096482;28;20205;-75
2023/04/10 08:22:53;;;;;;;23.03;19.93;;;9.50;99.90;;;8.77;74.96;101630.75;5096600;28;20268;-76
2023/04/10 08:25:26;;;;;;;24.57;19.23;;;9.60;99.90;;;8.84;74.74;101629.22;5095968;28;20185;-75
2023/04/10 08:27:59;;;;;;;24.17;18.63;;;9.70;99.90;;;9.07;73.65;101625.50;5096731;28;20228;-76
2023/04/10 08:30:32;;;;;;;22.07;18.60;;;9.80;99.90;;;9.11;73.64;101629.59;5096748;28;20200;-76
2023/04/10 08:33:06;;;;;;;20.13;17.17;;;9.90;99.60;;;9.24;71.97;101619.59;5096689;28;20238;-76
2023/04/10 08:35:38;;;;;;;19.87;16.73;;;10.10;99.00;;;9.29;73.12;101613.84;5096265;28;20625;-76
2023/04/10 08:38:11;;;;;;;18.90;16.33;;;10.20;99.20;;;9.37;71.21;101604.19;5096432;28;20238;-75
2023/04/10 08:40:45;;;;;;;17.23;15.27;;;10.30;98.50;;;9.47;70.54;101610.44;5095421;28;20275;-76
2023/04/10 08:43:17;;;;;;;17.93;15.37;;;10.40;97.80;;;9.61;69.78;101607.44;5096254;28;20210;-75
2023/04/10 08:45:50;;;;;;;16.57;14.47;;;10.50;97.80;;;9.92;65.21;101602.06;5096174;28;20226;-77
2023/04/10 08:48:31;;;;;;;16.70;14.10;;;10.70;96.30;;;10.33;62.85;101601.94;5096311;28;20298;-76
2023/04/10 08:51:07;;;;;;;16.50;14.80;;;11.10;94.30;;;10.30;65.32;101596.88;5095544;28;20189;-75
2023/04/10 08:53:51;;;;;;;15.57;13.50;;;11.20;95.20;;;10.34;64.28;101603.66;5096138;28;20193;-75
2023/04/10 08:56:25;;;;;;;20.63;18.23;;;11.20;95.00;;;10.46;63.69;101591.81;5096167;28;20236;-76
2023/04/10 08:58:57;;;;;;;16.60;14.23;;;11.30;94.50;;;10.58;61.95;101587.19;5095892;28;20733;-76
2023/04/10 09:01:29;;;;;;;15.13;13.27;;;11.40;93.60;;;10.82;60.52;101595.63;5096298;28;20188;-76
2023/04/10 09:04:01;;;;;;;15.03;12.83;;;11.60;93.00;;;11.27;56.04;101587.84;5096256;28;20196;-76
2023/04/10 09:06:33;;;;;;;15.47;13.43;;;11.90;90.90;;;11.28;55.61;101584.16;5096129;28;20221;-76
2023/04/10 09:09:07;;;;;;;14.23;12.73;;;12.00;90.50;;;11.74;54.02;101582.53;5095850;28;20564;-76
2023/04/10 09:12:02;;;;;;;13.77;12.33;;;12.30;89.10;;;11.91;53.78;101577.22;5095724;28;20191;-76
2023/04/10 09:14:35;;;;;;;14.00;12.50;;;12.60;87.20;;;11.97;53.96;101570.41;5095620;28;20752;-76
2023/04/10 09:17:23;;;;;;;15.37;13.43;;;12.60;88.20;;;11.99;53.39;101573.78;5095882;28;20229;-75
2023/04/10 09:19:57;;;;;;;15.77;13.63;;;12.50;89.80;;;12.17;53.21;101567.47;5095945;28;20598;-76
2023/04/10 09:22:36;;;;;;;12.50;11.20;;;12.80;86.80;;;12.01;54.55;101563.75;5095552;28;20656;-76
2023/04/10 09:25:33;;;;;;;19.30;16.73;;;12.70;89.20;;;12.05;54.98;101567.84;5095457;28;20641;-76
2023/04/10 09:28:07;;;;;;;14.47;12.93;;;12.70;88.50;;;12.22;54.51;101547.38;5095569;28;20237;-76
2023/04/10 09:30:43;;;;;;;15.23;13.63;;;12.90;87.70;;;12.15;55.46;101552.50;5095791;28;20200;-76
2023/04/10 09:33:28;;;;;;;15.80;13.67;;;12.90;89.00;;;12.50;51.81;101543.66;5095275;28;20660;-76
2023/04/10 09:36:02;;;;;;;13.53;12.10;;;13.00;86.50;;;12.41;54.35;101533.81;5095197;28;20777;-76
2023/04/10 09:38:34;;;;;;;14.13;12.63;;;13.10;88.30;;;12.41;52.93;101537.34;5095234;28;20235;-76
2023/04/10 09:41:13;;;;;;;13.10;11.57;;;13.10;86.90;;;12.74;51.28;101527.72;5095187;28;20592;-76
2023/04/10 09:43:45;;;;;;;14.27;12.53;;;13.30;84.60;;;12.75;53.61;101517.81;5095498;28;20188;-76
2023/04/10 09:46:29;;;;;;;16.97;12.97;;;13.40;87.10;;;12.91;53.11;101502.66;5095359;28;20227;-76
2023/04/10 09:49:04;;;;;;;16.03;13.50;;;13.60;86.90;;;12.94;53.41;101501.53;5095307;28;20200;-76
2023/04/10 09:51:38;;;;;;;13.60;12.27;;;13.60;86.10;;;13.16;50.32;101495.66;5095223;28;20192;-76
2023/04/10 09:54:13;;;;;;;14.60;13.00;;;13.80;81.70;;;13.11;51.92;101498.00;5095197;28;20193;-76
2023/04/10 09:56:50;;;;;;;13.27;11.03;;;13.80;83.40;;;13.22;50.75;101478.88;5095175;28;20228;-76
2023/04/10 09:59:23;;;;;;;13.03;10.77;;;13.90;82.10;;;13.17;50.59;101479.38;5094759;28;20225;-76
2023/04/10 10:01:55;;;;;;;11.27;10.07;;;13.80;82.10;;;13.17;51.90;101468.63;5095078;28;20189;-76
2023/04/10 10:04:30;;;;;;;11.40;10.03;;;13.90;83.40;;;13.32;52.74;101466.16;5094533;28;20284;-76
2023/04/10 10:07:04;;;;;;;11.93;10.60;;;14.00;84.20;;;13.37;50.86;101469.22;5094673;28;20722;-76
2023/04/10 10:09:38;;;;;;;12.20;10.90;;;14.10;83.20;;;13.47;49.85;101456.50;5094897;28;20193;-77
2023/04/10 10:12:15;;;;;;;11.30;9.93;;;14.10;82.00;;;13.62;49.79;101452.19;5094791;28;20189;-76
2023/04/10 10:15:08;;;;;;;11.57;10.37;;;14.20;81.10;;;13.73;48.30;101446.50;5094868;28;20213;-76
2023/04/10 10:17:55;;;;;;;11.83;10.63;;;14.40;79.40;;;13.80;49.17;101443.16;5094170;28;20228;-76
2023/04/10 10:20:34;;;;;;;12.43;11.20;;;14.40;78.80;;;14.02;46.27;101439.84;5094740;28;20227;-76
2023/04/10 10:23:08;;;;;;;11.40;9.37;;;14.60;75.10;;;14.03;48.18;101436.16;5094705;28;20238;-76
2023/04/10 10:25:44;;;;;;;10.60;9.60;;;14.60;77.20;;;14.20;46.57;101427.94;5094599;28;20193;-76
2023/04/10 10:28:18;;;;;;;11.73;10.47;;;14.80;75.20;;;14.29;46.97;101428.75;5094480;28;20221;-76
2023/04/10 10:30:54;;;;;;;10.73;9.63;;;14.90;75.50;;;14.36;48.73;101427.13;5094198;28;20200;-76
2023/04/10 10:33:30;;;;;;;12.20;10.90;;;15.00;78.00;;;14.39;49.00;101425.94;5094075;28;20598;-76
2023/04/10 10:36:06;;;;;;;10.87;9.80;;;15.00;79.00;;;14.48;47.46;101420.38;5094355;28;20240;-76
2023/04/10 10:38:47;;;;;;;11.63;10.43;;;15.10;75.40;;;14.52;47.05;101410.13;5094114;28;20672;-76